sensor_id;sensor_type;location;lat;lon;timestamp;pressure;altitude;pressure_sealevel;temperature;humidity
34742;BME280;20968;42.696;23.360;2023-03-03T00:00:14;95320.63;;;6.85;72.82
34742;BME280;20968;42.696;23.360;2023-03-03T00:02:40;95314.84;;;6.83;73.04
34742;BME280;20968;42.696;23.360;2023-03-03T00:05:06;95319.25;;;6.81;72.76
34742;BME280;20968;42.696;23.360;2023-03-03T00:07:31;95312.84;;;6.84;73.27
34742;BME280;20968;42.696;23.360;2023-03-03T00:09:57;95319.00;;;6.96;73.32
34742;BME280;20968;42.696;23.360;2023-03-03T00:12:25;95313.03;;;6.89;73.02
34742;BME280;20968;42.696;23.360;2023-03-03T00:14:51;95300.13;;;6.90;72.75
34742;BME280;20968;42.696;23.360;2023-03-03T00:17:24;95313.09;;;7.07;72.88
34742;BME280;20968;42.696;23.360;2023-03-03T00:19:50;95314.16;;;7.09;72.12
34742;BME280;20968;42.696;23.360;2023-03-03T00:22:26;95310.34;;;6.98;72.83
34742;BME280;20968;42.696;23.360;2023-03-03T00:24:52;95306.03;;;6.88;73.03
34742;BME280;20968;42.696;23.360;2023-03-03T00:27:30;95298.88;;;6.82;72.78
34742;BME280;20968;42.696;23.360;2023-03-03T00:29:59;95310.53;;;6.73;73.22
34742;BME280;20968;42.696;23.360;2023-03-03T00:32:28;95299.88;;;6.66;73.94
34742;BME280;20968;42.696;23.360;2023-03-03T00:35:01;95297.31;;;6.72;73.78
34742;BME280;20968;42.696;23.360;2023-03-03T00:37:42;95300.00;;;6.63;73.79
34742;BME280;20968;42.696;23.360;2023-03-03T00:42:48;95293.09;;;6.80;73.73
34742;BME280;20968;42.696;23.360;2023-03-03T00:47:53;95284.59;;;6.87;73.55
34742;BME280;20968;42.696;23.360;2023-03-03T00:50:26;95286.28;;;6.84;73.70
34742;BME280;20968;42.696;23.360;2023-03-03T00:52:59;95272.97;;;6.65;73.81
34742;BME280;20968;42.696;23.360;2023-03-03T00:55:27;95266.34;;;6.75;73.59
34742;BME280;20968;42.696;23.360;2023-03-03T00:57:52;95262.81;;;6.74;73.51
34742;BME280;20968;42.696;23.360;2023-03-03T01:00:18;95269.06;;;6.84;73.61
34742;BME280;20968;42.696;23.360;2023-03-03T01:02:44;95266.34;;;6.84;73.46
34742;BME280;20968;42.696;23.360;2023-03-03T01:05:13;95261.03;;;6.89;73.29
34742;BME280;20968;42.696;23.360;2023-03-03T01:07:38;95251.31;;;6.88;73.00
34742;BME280;20968;42.696;23.360;2023-03-03T01:10:04;95254.84;;;7.06;73.31
34742;BME280;20968;42.696;23.360;2023-03-03T01:12:30;95252.88;;;7.07;72.93
34742;BME280;20968;42.696;23.360;2023-03-03T01:14:56;95258.66;;;7.18;73.09
34742;BME280;20968;42.696;23.360;2023-03-03T01:17:21;95257.31;;;7.22;72.71
34742;BME280;20968;42.696;23.360;2023-03-03T01:19:46;95238.16;;;7.13;71.90
34742;BME280;20968;42.696;23.360;2023-03-03T01:22:12;95248.47;;;7.09;72.11
34742;BME280;20968;42.696;23.360;2023-03-03T01:24:37;95254.13;;;7.15;72.49
34742;BME280;20968;42.696;23.360;2023-03-03T01:27:03;95241.75;;;7.01;72.12
34742;BME280;20968;42.696;23.360;2023-03-03T01:29:28;95254.22;;;6.93;72.96
34742;BME280;20968;42.696;23.360;2023-03-03T01:31:54;95239.16;;;6.89;72.77
34742;BME280;20968;42.696;23.360;2023-03-03T01:34:19;95246.03;;;7.02;72.55
34742;BME280;20968;42.696;23.360;2023-03-03T01:36:44;95245.88;;;7.06;71.87
34742;BME280;20968;42.696;23.360;2023-03-03T01:39:10;95244.38;;;7.14;71.99
34742;BME280;20968;42.696;23.360;2023-03-03T01:41:36;95242.09;;;7.03;72.66
34742;BME280;20968;42.696;23.360;2023-03-03T01:44:02;95228.09;;;7.01;72.46
34742;BME280;20968;42.696;23.360;2023-03-03T01:46:42;95244.22;;;7.08;72.27
34742;BME280;20968;42.696;23.360;2023-03-03T01:49:15;95243.91;;;7.15;72.63
34742;BME280;20968;42.696;23.360;2023-03-03T01:51:47;95238.41;;;7.06;72.33
34742;BME280;20968;42.696;23.360;2023-03-03T01:54:33;95229.78;;;7.17;72.11
34742;BME280;20968;42.696;23.360;2023-03-03T01:57:05;95231.59;;;7.20;71.71
34742;BME280;20968;42.696;23.360;2023-03-03T01:59:34;95241.19;;;7.24;71.26
34742;BME280;20968;42.696;23.360;2023-03-03T02:02:02;95236.19;;;7.32;71.27
34742;BME280;20968;42.696;23.360;2023-03-03T02:04:28;95227.50;;;7.15;71.33
34742;BME280;20968;42.696;23.360;2023-03-03T02:07:00;95225.53;;;7.16;71.34
34742;BME280;20968;42.696;23.360;2023-03-03T02:12:07;95229.78;;;7.17;71.79
34742;BME280;20968;42.696;23.360;2023-03-03T02:14:34;95235.56;;;7.28;70.95
34742;BME280;20968;42.696;23.360;2023-03-03T02:16:59;95234.19;;;7.23;70.57
34742;BME280;20968;42.696;23.360;2023-03-03T02:22:07;95223.84;;;7.18;70.95
34742;BME280;20968;42.696;23.360;2023-03-03T02:24:46;95228.41;;;7.12;71.29
34742;BME280;20968;42.696;23.360;2023-03-03T02:27:12;95242.38;;;7.14;71.28
34742;BME280;20968;42.696;23.360;2023-03-03T02:29:38;95222.59;;;7.01;71.35
34742;BME280;20968;42.696;23.360;2023-03-03T02:32:04;95239.03;;;7.01;71.24
34742;BME280;20968;42.696;23.360;2023-03-03T02:34:30;95238.41;;;7.06;71.68
34742;BME280;20968;42.696;23.360;2023-03-03T02:36:55;95218.19;;;6.95;71.41
34742;BME280;20968;42.696;23.360;2023-03-03T02:39:22;95228.22;;;6.98;71.76
34742;BME280;20968;42.696;23.360;2023-03-03T02:42:08;95231.88;;;7.04;71.50
34742;BME280;20968;42.696;23.360;2023-03-03T02:44:36;95230.22;;;6.97;71.78
34742;BME280;20968;42.696;23.360;2023-03-03T02:47:02;95231.88;;;7.04;71.49
34742;BME280;20968;42.696;23.360;2023-03-03T02:49:30;95234.78;;;7.09;71.60
34742;BME280;20968;42.696;23.360;2023-03-03T02:51:57;95226.88;;;7.02;71.25
34742;BME280;20968;42.696;23.360;2023-03-03T02:54:24;95223.53;;;6.98;71.71
34742;BME280;20968;42.696;23.360;2023-03-03T02:56:50;95226.75;;;7.15;71.36
34742;BME280;20968;42.696;23.360;2023-03-03T02:59:16;95232.38;;;7.20;71.50
34742;BME280;20968;42.696;23.360;2023-03-03T03:01:42;95219.13;;;7.19;71.04
34742;BME280;20968;42.696;23.360;2023-03-03T03:04:14;95215.66;;;7.27;71.17
34742;BME280;20968;42.696;23.360;2023-03-03T03:06:40;95224.16;;;7.29;70.80
34742;BME280;20968;42.696;23.360;2023-03-03T03:09:07;95222.63;;;7.37;70.44
34742;BME280;20968;42.696;23.360;2023-03-03T03:11:33;95230.25;;;7.42;70.52
34742;BME280;20968;42.696;23.360;2023-03-03T03:14:00;95219.91;;;7.28;69.98
34742;BME280;20968;42.696;23.360;2023-03-03T03:16:25;95212.28;;;7.05;70.79
34742;BME280;20968;42.696;23.360;2023-03-03T03:18:51;95210.16;;;7.09;71.20
34742;BME280;20968;42.696;23.360;2023-03-03T03:21:17;95209.69;;;7.11;70.75
34742;BME280;20968;42.696;23.360;2023-03-03T03:23:43;95204.03;;;6.88;71.45
34742;BME280;20968;42.696;23.360;2023-03-03T03:26:09;95217.88;;;6.84;71.84
34742;BME280;20968;42.696;23.360;2023-03-03T03:28:35;95213.78;;;6.89;72.42
34742;BME280;20968;42.696;23.360;2023-03-03T03:31:01;95217.44;;;6.94;71.83
34742;BME280;20968;42.696;23.360;2023-03-03T03:33:26;95206.81;;;7.05;71.34
34742;BME280;20968;42.696;23.360;2023-03-03T03:35:53;95205.59;;;7.15;72.08
34742;BME280;20968;42.696;23.360;2023-03-03T03:38:21;95213.50;;;7.13;71.60
34742;BME280;20968;42.696;23.360;2023-03-03T03:40:46;95202.56;;;7.04;71.11
34742;BME280;20968;42.696;23.360;2023-03-03T03:43:12;95194.50;;;7.01;71.60
34742;BME280;20968;42.696;23.360;2023-03-03T03:45:38;95200.53;;;6.96;71.54
34742;BME280;20968;42.696;23.360;2023-03-03T03:48:05;95207.97;;;6.87;72.79
34742;BME280;20968;42.696;23.360;2023-03-03T03:50:31;95207.66;;;6.85;72.38
34742;BME280;20968;42.696;23.360;2023-03-03T03:52:57;95193.38;;;6.72;73.07
34742;BME280;20968;42.696;23.360;2023-03-03T03:55:22;95193.84;;;6.79;72.65
34742;BME280;20968;42.696;23.360;2023-03-03T03:57:47;95195.38;;;6.89;73.20
34742;BME280;20968;42.696;23.360;2023-03-03T04:00:13;95194.00;;;6.85;73.35
34742;BME280;20968;42.696;23.360;2023-03-03T04:02:39;95195.38;;;6.89;72.96
34742;BME280;20968;42.696;23.360;2023-03-03T04:05:05;95198.88;;;6.90;73.65
34742;BME280;20968;42.696;23.360;2023-03-03T04:07:31;95188.38;;;6.88;73.90
34742;BME280;20968;42.696;23.360;2023-03-03T04:09:57;95192.97;;;7.00;73.65
34742;BME280;20968;42.696;23.360;2023-03-03T04:12:22;95190.38;;;7.05;73.75
34742;BME280;20968;42.696;23.360;2023-03-03T04:14:47;95196.94;;;7.08;73.25
34742;BME280;20968;42.696;23.360;2023-03-03T04:17:20;95196.78;;;7.11;73.41
34742;BME280;20968;42.696;23.360;2023-03-03T04:19:46;95194.94;;;7.08;73.39
34742;BME280;20968;42.696;23.360;2023-03-03T04:22:12;95194.63;;;7.06;73.65
34742;BME280;20968;42.696;23.360;2023-03-03T04:24:40;95185.66;;;7.06;73.81
34742;BME280;20968;42.696;23.360;2023-03-03T04:27:05;95194.50;;;7.01;73.41
34742;BME280;20968;42.696;23.360;2023-03-03T04:29:32;95192.78;;;6.94;74.09
34742;BME280;20968;42.696;23.360;2023-03-03T04:31:58;95188.81;;;6.87;74.54
34742;BME280;20968;42.696;23.360;2023-03-03T04:34:24;95181.84;;;6.86;73.98
34742;BME280;20968;42.696;23.360;2023-03-03T04:36:51;95191.41;;;6.81;74.64
34742;BME280;20968;42.696;23.360;2023-03-03T04:39:16;95183.34;;;6.87;74.77
34742;BME280;20968;42.696;23.360;2023-03-03T04:41:44;95190.34;;;6.88;74.63
34742;BME280;20968;42.696;23.360;2023-03-03T04:44:09;95185.63;;;6.88;75.12
34742;BME280;20968;42.696;23.360;2023-03-03T04:46:34;95185.19;;;6.90;74.74
34742;BME280;20968;42.696;23.360;2023-03-03T04:49:00;95175.94;;;6.87;75.12
34742;BME280;20968;42.696;23.360;2023-03-03T04:51:25;95180.91;;;6.80;74.62
34742;BME280;20968;42.696;23.360;2023-03-03T04:53:51;95175.63;;;6.85;74.73
34742;BME280;20968;42.696;23.360;2023-03-03T04:56:16;95190.81;;;6.95;74.88
34742;BME280;20968;42.696;23.360;2023-03-03T04:58:42;95178.94;;;6.89;74.99
34742;BME280;20968;42.696;23.360;2023-03-03T05:01:11;95187.31;;;6.86;75.13
34742;BME280;20968;42.696;23.360;2023-03-03T05:03:36;95192.31;;;6.78;74.87
34742;BME280;20968;42.696;23.360;2023-03-03T05:06:02;95191.88;;;6.80;74.53
34742;BME280;20968;42.696;23.360;2023-03-03T05:08:27;95192.94;;;6.82;75.08
34742;BME280;20968;42.696;23.360;2023-03-03T05:10:53;95196.88;;;6.81;74.87
34742;BME280;20968;42.696;23.360;2023-03-03T05:13:19;95188.81;;;6.78;74.93
34742;BME280;20968;42.696;23.360;2023-03-03T05:15:49;95192.47;;;6.84;75.70
34742;BME280;20968;42.696;23.360;2023-03-03T05:18:16;95200.53;;;6.96;74.89
34742;BME280;20968;42.696;23.360;2023-03-03T05:20:41;95207.88;;;7.08;75.00
34742;BME280;20968;42.696;23.360;2023-03-03T05:23:07;95202.84;;;7.06;75.10
34742;BME280;20968;42.696;23.360;2023-03-03T05:25:32;95204.84;;;7.15;75.27
34742;BME280;20968;42.696;23.360;2023-03-03T05:27:58;95195.72;;;7.09;75.11
34742;BME280;20968;42.696;23.360;2023-03-03T05:30:23;95202.41;;;7.08;75.20
34742;BME280;20968;42.696;23.360;2023-03-03T05:32:49;95198.28;;;7.03;75.47
34742;BME280;20968;42.696;23.360;2023-03-03T05:35:14;95209.84;;;7.07;75.00
34742;BME280;20968;42.696;23.360;2023-03-03T05:37:40;95205.00;;;7.11;75.01
34742;BME280;20968;42.696;23.360;2023-03-03T05:40:11;95199.50;;;7.02;75.02
34742;BME280;20968;42.696;23.360;2023-03-03T05:42:37;95210.16;;;7.09;75.11
34742;BME280;20968;42.696;23.360;2023-03-03T05:45:02;95200.13;;;7.15;75.40
34742;BME280;20968;42.696;23.360;2023-03-03T05:47:28;95201.03;;;7.21;75.07
34742;BME280;20968;42.696;23.360;2023-03-03T05:49:53;95211.09;;;7.33;74.55
34742;BME280;20968;42.696;23.360;2023-03-03T05:52:19;95196.16;;;7.16;74.53
34742;BME280;20968;42.696;23.360;2023-03-03T05:54:44;95217.00;;;7.23;74.62
34742;BME280;20968;42.696;23.360;2023-03-03T05:57:10;95216.41;;;7.37;74.32
34742;BME280;20968;42.696;23.360;2023-03-03T05:59:36;95214.44;;;7.46;74.15
34742;BME280;20968;42.696;23.360;2023-03-03T06:02:01;95201.19;;;7.36;74.11
34742;BME280;20968;42.696;23.360;2023-03-03T06:04:27;95216.41;;;7.37;74.64
34742;BME280;20968;42.696;23.360;2023-03-03T06:06:53;95200.28;;;7.30;75.12
34742;BME280;20968;42.696;23.360;2023-03-03T06:09:19;95207.56;;;7.33;74.49
34742;BME280;20968;42.696;23.360;2023-03-03T06:11:45;95206.22;;;7.28;75.39
34742;BME280;20968;42.696;23.360;2023-03-03T06:14:10;95219.47;;;7.39;75.62
34742;BME280;20968;42.696;23.360;2023-03-03T06:16:36;95216.84;;;7.44;75.35
34742;BME280;20968;42.696;23.360;2023-03-03T06:19:01;95215.03;;;7.41;75.59
34742;BME280;20968;42.696;23.360;2023-03-03T06:21:27;95212.63;;;7.43;75.46
34742;BME280;20968;42.696;23.360;2023-03-03T06:23:52;95223.09;;;7.45;75.40
34742;BME280;20968;42.696;23.360;2023-03-03T06:26:18;95223.53;;;7.52;74.83
34742;BME280;20968;42.696;23.360;2023-03-03T06:28:43;95221.75;;;7.58;75.14
34742;BME280;20968;42.696;23.360;2023-03-03T06:31:09;95225.06;;;7.53;74.93
34742;BME280;20968;42.696;23.360;2023-03-03T06:33:34;95224.78;;;7.51;74.80
34742;BME280;20968;42.696;23.360;2023-03-03T06:36:00;95215.94;;;7.47;74.92
34742;BME280;20968;42.696;23.360;2023-03-03T06:38:25;95215.34;;;7.52;75.10
34742;BME280;20968;42.696;23.360;2023-03-03T06:40:50;95212.00;;;7.57;74.67
34742;BME280;20968;42.696;23.360;2023-03-03T06:43:16;95229.34;;;7.72;75.82
34742;BME280;20968;42.696;23.360;2023-03-03T06:45:41;95225.97;;;7.68;75.02
34742;BME280;20968;42.696;23.360;2023-03-03T06:48:07;95231.78;;;7.70;74.79
34742;BME280;20968;42.696;23.360;2023-03-03T06:50:32;95232.09;;;7.63;74.30
34742;BME280;20968;42.696;23.360;2023-03-03T06:53:06;95234.81;;;7.54;75.00
34742;BME280;20968;42.696;23.360;2023-03-03T06:55:32;95239.41;;;7.66;74.24
34742;BME280;20968;42.696;23.360;2023-03-03T06:57:58;95233.44;;;7.41;74.76
34742;BME280;20968;42.696;23.360;2023-03-03T07:00:25;95231.94;;;7.40;74.85
34742;BME280;20968;42.696;23.360;2023-03-03T07:03:07;95241.50;;;7.53;75.53
34742;BME280;20968;42.696;23.360;2023-03-03T07:05:32;95234.81;;;7.54;74.34
34742;BME280;20968;42.696;23.360;2023-03-03T07:07:59;95225.06;;;7.62;75.69
34742;BME280;20968;42.696;23.360;2023-03-03T07:10:27;95240.00;;;7.79;74.76
34742;BME280;20968;42.696;23.360;2023-03-03T07:12:53;95231.16;;;7.75;74.03
34742;BME280;20968;42.696;23.360;2023-03-03T07:15:22;95240.28;;;7.81;75.25
34742;BME280;20968;42.696;23.360;2023-03-03T07:17:52;95232.81;;;7.81;74.21
34742;BME280;20968;42.696;23.360;2023-03-03T07:20:38;95238.63;;;7.83;74.05
34742;BME280;20968;42.696;23.360;2023-03-03T07:23:23;95236.03;;;7.71;74.33
34742;BME280;20968;42.696;23.360;2023-03-03T07:25:49;95231.19;;;7.66;73.50
34742;BME280;20968;42.696;23.360;2023-03-03T07:28:25;95236.03;;;7.71;73.64
34742;BME280;20968;42.696;23.360;2023-03-03T07:30:56;95231.34;;;7.63;74.62
34742;BME280;20968;42.696;23.360;2023-03-03T07:33:33;95230.09;;;7.72;74.91
34742;BME280;20968;42.696;23.360;2023-03-03T07:36:01;95223.84;;;7.63;74.30
34742;BME280;20968;42.696;23.360;2023-03-03T07:38:37;95229.50;;;7.77;74.83
34742;BME280;20968;42.696;23.360;2023-03-03T07:41:11;95220.81;;;7.79;74.07
34742;BME280;20968;42.696;23.360;2023-03-03T07:44:04;95217.44;;;7.84;74.41
34742;BME280;20968;42.696;23.360;2023-03-03T07:46:39;95229.94;;;7.85;74.72
34742;BME280;20968;42.696;23.360;2023-03-03T07:49:23;95225.66;;;7.75;74.87
34742;BME280;20968;42.696;23.360;2023-03-03T07:51:54;95226.44;;;7.75;74.18
34742;BME280;20968;42.696;23.360;2023-03-03T07:54:35;95221.41;;;7.83;74.20
34742;BME280;20968;42.696;23.360;2023-03-03T07:57:20;95223.13;;;7.63;73.08
34742;BME280;20968;42.696;23.360;2023-03-03T08:04:53;95220.22;;;7.57;73.64
34742;BME280;20968;42.696;23.360;2023-03-03T08:07:21;95208.03;;;7.58;74.47
34742;BME280;20968;42.696;23.360;2023-03-03T08:18:36;95219.28;;;7.78;74.21
34742;BME280;20968;42.696;23.360;2023-03-03T08:21:22;95222.03;;;7.78;73.69
34742;BME280;20968;42.696;23.360;2023-03-03T08:23:50;95213.50;;;7.67;73.55
34742;BME280;20968;42.696;23.360;2023-03-03T08:26:22;95204.53;;;7.49;74.39
34742;BME280;20968;42.696;23.360;2023-03-03T08:28:49;95199.97;;;7.37;74.80
34742;BME280;20968;42.696;23.360;2023-03-03T08:31:14;95209.09;;;7.43;74.08
34742;BME280;20968;42.696;23.360;2023-03-03T08:33:42;95206.97;;;7.56;74.52
34742;BME280;20968;42.696;23.360;2023-03-03T08:36:08;95200.13;;;7.33;74.90
34742;BME280;20968;42.696;23.360;2023-03-03T08:38:34;95206.06;;;7.50;74.20
34742;BME280;20968;42.696;23.360;2023-03-03T08:41:01;95204.69;;;7.54;74.43
34742;BME280;20968;42.696;23.360;2023-03-03T08:43:27;95195.56;;;7.48;74.58
34742;BME280;20968;42.696;23.360;2023-03-03T08:45:58;95203.16;;;7.62;74.43
34742;BME280;20968;42.696;23.360;2023-03-03T08:48:25;95210.47;;;7.74;74.35
34742;BME280;20968;42.696;23.360;2023-03-03T08:50:51;95216.53;;;7.87;74.52
34742;BME280;20968;42.696;23.360;2023-03-03T08:53:18;95210.72;;;7.94;74.79
34742;BME280;20968;42.696;23.360;2023-03-03T08:55:44;95211.47;;;7.94;74.24
34742;BME280;20968;42.696;23.360;2023-03-03T08:58:10;95207.38;;;7.90;73.22
34742;BME280;20968;42.696;23.360;2023-03-03T09:00:36;95212.56;;;7.97;73.28
34742;BME280;20968;42.696;23.360;2023-03-03T09:03:04;95202.78;;;8.05;73.93
34742;BME280;20968;42.696;23.360;2023-03-03T09:05:33;95212.53;;;8.15;74.12
34742;BME280;20968;42.696;23.360;2023-03-03T09:07:59;95209.47;;;8.22;74.08
34742;BME280;20968;42.696;23.360;2023-03-03T09:10:26;95219.94;;;8.32;73.50
34742;BME280;20968;42.696;23.360;2023-03-03T09:12:55;95217.03;;;8.36;72.37
34742;BME280;20968;42.696;23.360;2023-03-03T09:17:53;95199.50;;;8.33;71.36
34742;BME280;20968;42.696;23.360;2023-03-03T09:20:28;95198.28;;;8.34;70.71
34742;BME280;20968;42.696;23.360;2023-03-03T09:22:55;95204.34;;;8.47;70.41
34742;BME280;20968;42.696;23.360;2023-03-03T09:25:41;95202.66;;;8.50;71.11
34742;BME280;20968;42.696;23.360;2023-03-03T09:28:28;95199.63;;;8.48;71.09
34742;BME280;20968;42.696;23.360;2023-03-03T09:31:01;95205.19;;;8.62;72.13
34742;BME280;20968;42.696;23.360;2023-03-03T09:33:40;95209.91;;;8.61;71.79
34742;BME280;20968;42.696;23.360;2023-03-03T09:36:27;95203.59;;;8.47;71.03
34742;BME280;20968;42.696;23.360;2023-03-03T09:38:54;95196.53;;;8.54;71.02
34742;BME280;20968;42.696;23.360;2023-03-03T09:44:32;95206.97;;;8.74;71.23
34742;BME280;20968;42.696;23.360;2023-03-03T09:49:35;95198.44;;;8.72;69.89
34742;BME280;20968;42.696;23.360;2023-03-03T09:52:28;95206.63;;;8.81;70.97
34742;BME280;20968;42.696;23.360;2023-03-03T09:55:39;95208.97;;;8.97;70.93
34742;BME280;20968;42.696;23.360;2023-03-03T10:03:36;95203.59;;;9.26;69.50
34742;BME280;20968;42.696;23.360;2023-03-03T10:06:26;95199.81;;;9.23;68.62
34742;BME280;20968;42.696;23.360;2023-03-03T10:09:39;95201.91;;;9.28;67.80
34742;BME280;20968;42.696;23.360;2023-03-03T10:17:39;95199.59;;;9.50;68.10
34742;BME280;20968;42.696;23.360;2023-03-03T10:23:14;95186.06;;;9.61;68.26
34742;BME280;20968;42.696;23.360;2023-03-03T10:26:16;95181.50;;;9.58;67.06
34742;BME280;20968;42.696;23.360;2023-03-03T10:29:00;95193.66;;;9.66;67.27
34742;BME280;20968;42.696;23.360;2023-03-03T10:48:56;95173.50;;;9.83;66.57
34742;BME280;20968;42.696;23.360;2023-03-03T10:54:11;95171.88;;;9.77;65.61
34742;BME280;20968;42.696;23.360;2023-03-03T10:59:40;95171.94;;;9.68;65.70
34742;BME280;20968;42.696;23.360;2023-03-03T11:07:41;95159.50;;;9.43;68.68
34742;BME280;20968;42.696;23.360;2023-03-03T11:10:56;95159.31;;;9.47;67.25
34742;BME280;20968;42.696;23.360;2023-03-03T11:13:25;95153.22;;;9.43;66.10
34742;BME280;20968;42.696;23.360;2023-03-03T11:16:22;95155.06;;;9.46;65.72
34742;BME280;20968;42.696;23.360;2023-03-03T11:19:37;95148.22;;;9.41;66.33
34742;BME280;20968;42.696;23.360;2023-03-03T11:22:23;95148.09;;;9.36;66.72
34742;BME280;20968;42.696;23.360;2023-03-03T11:32:49;95138.59;;;9.23;67.43
34742;BME280;20968;42.696;23.360;2023-03-03T11:35:22;95141.44;;;9.14;68.71
34742;BME280;20968;42.696;23.360;2023-03-03T11:38:01;95141.69;;;9.16;68.18
34742;BME280;20968;42.696;23.360;2023-03-03T11:40:50;95140.03;;;9.18;68.25
34742;BME280;20968;42.696;23.360;2023-03-03T11:43:29;95133.97;;;8.91;67.31
34742;BME280;20968;42.696;23.360;2023-03-03T11:46:04;95138.50;;;8.94;68.75
34742;BME280;20968;42.696;23.360;2023-03-03T11:51:06;95127.72;;;8.90;69.65
34742;BME280;20968;42.696;23.360;2023-03-03T11:53:48;95123.00;;;8.91;69.24
34742;BME280;20968;42.696;23.360;2023-03-03T11:56:24;95126.00;;;8.93;69.39
34742;BME280;20968;42.696;23.360;2023-03-03T12:02:01;95133.56;;;8.83;69.63
34742;BME280;20968;42.696;23.360;2023-03-03T12:04:36;95122.28;;;8.81;70.23
34742;BME280;20968;42.696;23.360;2023-03-03T12:12:22;95126.19;;;8.89;70.61
34742;BME280;20968;42.696;23.360;2023-03-03T12:26:01;95122.53;;;9.30;77.05
34742;BME280;20968;42.696;23.360;2023-03-03T12:28:40;95128.13;;;9.50;77.34
34742;BME280;20968;42.696;23.360;2023-03-03T12:41:49;95128.34;;;10.67;68.28
34742;BME280;20968;42.696;23.360;2023-03-03T12:44:23;95120.97;;;10.59;67.75
34742;BME280;20968;42.696;23.360;2023-03-03T12:55:10;95136.41;;;9.79;69.46
34742;BME280;20968;42.696;23.360;2023-03-03T12:57:54;95130.03;;;9.73;72.58
34742;BME280;20968;42.696;23.360;2023-03-03T13:08:46;95130.41;;;8.99;73.38
34742;BME280;20968;42.696;23.360;2023-03-03T13:11:35;95126.38;;;8.86;73.91
34742;BME280;20968;42.696;23.360;2023-03-03T13:17:00;95121.00;;;8.68;73.78
34742;BME280;20968;42.696;23.360;2023-03-03T13:19:48;95112.06;;;8.58;74.19
34742;BME280;20968;42.696;23.360;2023-03-03T13:22:26;95115.22;;;8.66;74.12
34742;BME280;20968;42.696;23.360;2023-03-03T13:25:15;95108.03;;;8.68;75.64
34742;BME280;20968;42.696;23.360;2023-03-03T13:27:47;95102.53;;;8.68;74.39
34742;BME280;20968;42.696;23.360;2023-03-03T13:30:34;95110.25;;;8.79;74.66
34742;BME280;20968;42.696;23.360;2023-03-03T13:33:10;95108.91;;;8.74;75.71
34742;BME280;20968;42.696;23.360;2023-03-03T13:35:50;95118.06;;;8.95;75.65
34742;BME280;20968;42.696;23.360;2023-03-03T13:38:24;95113.66;;;9.12;75.46
34742;BME280;20968;42.696;23.360;2023-03-03T13:57:25;95104.69;;;9.11;72.89
34742;BME280;20968;42.696;23.360;2023-03-03T14:10:29;95107.50;;;9.02;72.47
34742;BME280;20968;42.696;23.360;2023-03-03T14:13:10;95110.69;;;9.01;73.58
34742;BME280;20968;42.696;23.360;2023-03-03T14:15:49;95108.91;;;8.98;74.04
34742;BME280;20968;42.696;23.360;2023-03-03T14:26:15;95102.56;;;9.06;74.61
34742;BME280;20968;42.696;23.360;2023-03-03T14:28:43;95093.09;;;9.07;74.29
34742;BME280;20968;42.696;23.360;2023-03-03T14:31:37;95097.50;;;9.14;73.98
34742;BME280;20968;42.696;23.360;2023-03-03T14:37:18;95095.00;;;9.16;72.93
34742;BME280;20968;42.696;23.360;2023-03-03T14:39:50;95098.81;;;9.18;73.66
34742;BME280;20968;42.696;23.360;2023-03-03T14:42:47;95097.38;;;9.23;73.20
34742;BME280;20968;42.696;23.360;2023-03-03T14:47:58;95093.00;;;9.02;72.73
34742;BME280;20968;42.696;23.360;2023-03-03T14:50:31;95100.59;;;9.07;73.75
34742;BME280;20968;42.696;23.360;2023-03-03T14:55:41;95103.34;;;9.07;74.13
34742;BME280;20968;42.696;23.360;2023-03-03T14:58:39;95086.50;;;9.14;74.04
34742;BME280;20968;42.696;23.360;2023-03-03T15:01:13;95098.22;;;9.14;73.70
34742;BME280;20968;42.696;23.360;2023-03-03T15:03:47;95090.59;;;9.18;73.21
34742;BME280;20968;42.696;23.360;2023-03-03T15:06:32;95080.59;;;9.06;73.00
34742;BME280;20968;42.696;23.360;2023-03-03T15:11:44;95096.50;;;9.02;73.69
34742;BME280;20968;42.696;23.360;2023-03-03T15:14:13;95087.97;;;9.00;73.39
34742;BME280;20968;42.696;23.360;2023-03-03T15:16:40;95090.06;;;9.05;73.70
34742;BME280;20968;42.696;23.360;2023-03-03T15:19:38;95098.22;;;9.14;73.92
34742;BME280;20968;42.696;23.360;2023-03-03T15:25:03;95081.75;;;9.14;73.23
34742;BME280;20968;42.696;23.360;2023-03-03T15:27:38;95081.38;;;9.21;73.89
34742;BME280;20968;42.696;23.360;2023-03-03T15:30:29;95075.69;;;9.25;73.89
34742;BME280;20968;42.696;23.360;2023-03-03T15:36:07;95086.50;;;9.28;73.47
34742;BME280;20968;42.696;23.360;2023-03-03T15:42:04;95102.63;;;9.35;72.92
34742;BME280;20968;42.696;23.360;2023-03-03T15:47:14;95096.19;;;9.38;73.07
34742;BME280;20968;42.696;23.360;2023-03-03T15:55:19;95108.22;;;9.40;72.85
34742;BME280;20968;42.696;23.360;2023-03-03T16:03:16;95099.78;;;9.29;72.05
34742;BME280;20968;42.696;23.360;2023-03-03T16:05:51;95109.16;;;9.23;72.19
34742;BME280;20968;42.696;23.360;2023-03-03T16:08:37;95110.38;;;9.22;73.27
34742;BME280;20968;42.696;23.360;2023-03-03T16:16:34;95126.38;;;9.24;72.97
34742;BME280;20968;42.696;23.360;2023-03-03T16:24:55;95135.97;;;9.28;72.26
34742;BME280;20968;42.696;23.360;2023-03-03T16:32:55;95134.72;;;9.29;72.25
34742;BME280;20968;42.696;23.360;2023-03-03T16:35:59;95133.22;;;9.28;72.59
34742;BME280;20968;42.696;23.360;2023-03-03T16:38:31;95128.00;;;9.30;72.38
34742;BME280;20968;42.696;23.360;2023-03-03T16:41:00;95130.00;;;9.29;71.98
34742;BME280;20968;42.696;23.360;2023-03-03T16:46:41;95144.91;;;9.37;73.02
34742;BME280;20968;42.696;23.360;2023-03-03T16:49:32;95144.44;;;9.39;72.10
34742;BME280;20968;42.696;23.360;2023-03-03T16:54:42;95159.38;;;9.38;72.55
34742;BME280;20968;42.696;23.360;2023-03-03T17:06:04;95168.84;;;9.37;72.58
34742;BME280;20968;42.696;23.360;2023-03-03T17:09:06;95173.13;;;9.38;72.08
34742;BME280;20968;42.696;23.360;2023-03-03T17:12:03;95171.91;;;9.39;71.66
34742;BME280;20968;42.696;23.360;2023-03-03T17:14:57;95165.94;;;9.40;71.60
34742;BME280;20968;42.696;23.360;2023-03-03T17:20:05;95174.47;;;9.42;71.98